Llanfairfechan, United Kingdom
Current Conditions -  °F | °C
As of 3:50 AM on Friday 19 Dec 2014 (Local Time) from EGOV Reporting Station
Few Clouds Few Clouds  
Wind Chill:   Ceiling: Unl
Heat Index:   Visibility: 6mi
Dew Point:   Wind: 21mph
Humidity: 66%   Direction: 270°W
Pressure: 29.77"   Gusts: NA
Location:  53.26°N, 3.97°W
Report Text: EGOV 190350Z 27018KT 9999 FEW035 08/02 Q1008 BLU
Loading
Personal Weather Stations






























Interactive Weather Map New forecast layout! Learn more

10-Day Weather Forecast

Advertisements
Track Severe Weather on mobile